createdAt,value
2018-08-09T00:02:14.182Z,61.58
2018-08-09T00:04:48.527Z,62.24
2018-08-09T00:07:23.156Z,63.18
2018-08-09T00:09:57.596Z,62.81
2018-08-09T00:12:32.112Z,62.15
2018-08-09T00:15:06.848Z,63.28
2018-08-09T00:17:41.752Z,63.60
2018-08-09T00:20:16.320Z,65.15
2018-08-09T00:22:50.904Z,64.93
2018-08-09T00:25:25.580Z,62.64
2018-08-09T00:28:00.217Z,62.36
2018-08-09T00:30:34.719Z,61.93
2018-08-09T00:33:09.197Z,62.60
2018-08-09T00:35:43.563Z,61.01
2018-08-09T00:38:17.957Z,61.31
2018-08-09T00:40:52.598Z,60.83
2018-08-09T00:43:27.033Z,62.30
2018-08-09T00:46:01.653Z,61.18
2018-08-09T00:48:36.182Z,61.22
2018-08-09T00:51:10.645Z,61.25
2018-08-09T00:53:45.248Z,59.35
2018-08-09T00:56:19.717Z,59.95
2018-08-09T00:58:54.428Z,60.71
2018-08-09T01:01:29.020Z,61.11
2018-08-09T01:04:03.661Z,60.97
2018-08-09T01:06:38.150Z,61.29
2018-08-09T01:09:15.367Z,61.41
2018-08-09T01:11:50.044Z,60.35
2018-08-09T01:14:24.917Z,60.14
2018-08-09T01:16:59.818Z,60.00
2018-08-09T01:19:34.387Z,59.88
2018-08-09T01:22:08.997Z,59.28
2018-08-09T01:24:43.891Z,58.20
2018-08-09T01:27:18.452Z,58.38
2018-08-09T01:29:52.980Z,59.41
2018-08-09T01:32:27.463Z,58.43
2018-08-09T01:35:02.061Z,58.67
2018-08-09T01:37:36.443Z,59.07
2018-08-09T01:40:10.810Z,58.94
2018-08-09T01:42:56.682Z,59.01
2018-08-09T01:45:31.140Z,59.15
2018-08-09T01:48:05.691Z,59.71
2018-08-09T01:50:40.069Z,59.33
2018-08-09T01:53:20.989Z,59.81
2018-08-09T01:56:13.608Z,59.61
2018-08-09T01:58:48.592Z,61.66
2018-08-09T02:01:23.192Z,60.34
2018-08-09T02:03:57.858Z,59.63
2018-08-09T02:06:32.528Z,59.52
2018-08-09T02:09:08.905Z,59.31
2018-08-09T02:23:53.068Z,58.78
2018-08-09T02:26:44.392Z,59.13
2018-08-09T02:29:19.165Z,59.14
2018-08-09T02:31:53.753Z,59.90
2018-08-09T02:34:28.732Z,60.74
2018-08-09T02:37:03.120Z,60.48
2018-08-09T02:39:37.813Z,61.01
2018-08-09T02:42:12.487Z,60.36
2018-08-09T02:44:46.974Z,59.62
2018-08-09T02:47:21.494Z,60.14
2018-08-09T02:49:56.047Z,59.52
2018-08-09T02:52:30.534Z,59.39
2018-08-09T02:55:05.197Z,60.68
2018-08-09T02:57:40.227Z,59.60
2018-08-09T03:00:14.667Z,60.61
2018-08-09T03:02:49.185Z,58.63
2018-08-09T03:05:23.716Z,58.57
2018-08-09T03:07:58.145Z,58.80
2018-08-09T03:10:32.724Z,59.02
2018-08-09T03:13:07.105Z,59.42
2018-08-09T03:15:41.696Z,59.73
2018-08-09T03:18:16.297Z,60.21
2018-08-09T03:20:50.797Z,60.51
2018-08-09T03:23:25.583Z,60.52
2018-08-09T03:26:00.201Z,60.30
2018-08-09T03:28:35.009Z,61.00
2018-08-09T03:31:09.591Z,62.04
2018-08-09T03:34:01.492Z,61.76
2018-08-09T03:36:39.829Z,62.41
2018-08-09T03:39:14.494Z,62.10
2018-08-09T03:44:58.428Z,61.13
2018-08-09T03:47:32.964Z,60.37
2018-08-09T03:50:11.682Z,60.25
2018-08-09T03:52:54.174Z,59.99
2018-08-09T03:55:34.969Z,60.48
2018-08-09T03:58:21.876Z,59.93
2018-08-09T04:00:56.260Z,59.83
2018-08-09T04:03:30.753Z,59.49
2018-08-09T04:06:05.414Z,59.21
2018-08-09T04:08:39.984Z,59.11
2018-08-09T04:11:14.624Z,58.85
2018-08-09T04:13:49.257Z,59.01
2018-08-09T04:16:24.138Z,59.02
2018-08-09T04:18:58.734Z,58.94
2018-08-09T04:21:33.126Z,59.31
2018-08-09T04:24:07.744Z,59.19
2018-08-09T04:26:42.473Z,59.31
2018-08-09T04:29:16.768Z,59.26
2018-08-09T04:31:51.127Z,59.14
2018-08-09T04:34:37.812Z,59.43
2018-08-09T04:37:12.338Z,58.54
2018-08-09T04:39:46.899Z,59.02
2018-08-09T04:42:21.296Z,57.86
2018-08-09T04:44:55.740Z,57.80
2018-08-09T04:47:30.439Z,57.79
2018-08-09T04:50:05.607Z,57.65
2018-08-09T04:52:39.904Z,57.87
2018-08-09T04:55:14.317Z,58.36
2018-08-09T04:57:48.789Z,58.40
2018-08-09T05:00:23.551Z,59.10
2018-08-09T05:02:58.010Z,58.84
2018-08-09T05:05:32.593Z,58.55
2018-08-09T05:08:07.408Z,58.14
2018-08-09T05:10:48.584Z,58.34
2018-08-09T05:13:37.072Z,58.15
2018-08-09T05:16:11.641Z,59.30
2018-08-09T05:18:46.288Z,58.90
2018-08-09T05:21:21.024Z,57.90
2018-08-09T05:23:55.573Z,58.15
2018-08-09T05:26:30.240Z,57.96
2018-08-09T05:29:04.736Z,58.22
2018-08-09T05:31:39.493Z,58.52
2018-08-09T05:34:14.051Z,58.51
2018-08-09T05:36:48.413Z,59.21
2018-08-09T05:39:22.928Z,59.37
2018-08-09T05:41:57.432Z,62.15
2018-08-09T05:44:32.060Z,63.31
2018-08-09T05:47:06.529Z,60.07
2018-08-09T05:49:40.929Z,58.98
2018-08-09T05:52:15.344Z,58.92
2018-08-09T05:54:49.800Z,58.87
2018-08-09T05:57:24.374Z,59.03
2018-08-09T05:59:59.054Z,58.00
2018-08-09T06:02:34.018Z,58.59
2018-08-09T06:05:08.672Z,59.19
2018-08-09T06:07:43.214Z,58.78
2018-08-09T06:10:17.764Z,59.00
2018-08-09T06:12:52.124Z,59.88
2018-08-09T06:15:26.549Z,57.61
2018-08-09T06:18:01.152Z,56.73
2018-08-09T06:20:35.582Z,55.84
2018-08-09T06:23:10.092Z,56.72
2018-08-09T06:25:44.708Z,55.25
2018-08-09T06:28:19.197Z,52.71
2018-08-09T06:30:53.986Z,49.95
2018-08-09T06:33:28.641Z,46.17
2018-08-09T06:36:02.961Z,41.97
2018-08-09T06:38:37.821Z,40.36
2018-08-09T06:41:12.512Z,40.61
2018-08-09T06:43:47.397Z,44.06
2018-08-09T06:46:21.884Z,45.60
2018-08-09T06:48:56.281Z,49.38
2018-08-09T06:51:30.767Z,49.48
2018-08-09T06:54:14.969Z,50.13
2018-08-09T06:56:49.560Z,49.23
2018-08-09T06:59:24.197Z,46.32
2018-08-09T07:01:59.134Z,46.66
2018-08-09T07:04:33.869Z,46.73
2018-08-09T07:07:08.333Z,49.25
2018-08-09T07:09:42.793Z,51.75
2018-08-09T07:12:17.224Z,51.26
2018-08-09T07:14:52.164Z,52.68
2018-08-09T07:17:26.700Z,52.28
2018-08-09T07:20:01.127Z,53.96
2018-08-09T07:22:35.614Z,52.52
2018-08-09T07:25:10.261Z,46.04
2018-08-09T07:27:44.897Z,38.93
2018-08-09T07:30:19.745Z,33.14
2018-08-09T07:32:54.217Z,31.69
2018-08-09T07:35:28.818Z,29.31
2018-08-09T07:38:03.257Z,32.77
2018-08-09T07:40:37.857Z,35.86
2018-08-09T07:43:12.489Z,34.14
2018-08-09T07:45:47.008Z,36.01
2018-08-09T07:48:21.925Z,39.56
2018-08-09T07:50:57.076Z,41.13
2018-08-09T07:53:31.498Z,39.21
2018-08-09T07:56:05.910Z,38.79
2018-08-09T07:58:40.380Z,36.95
2018-08-09T08:01:15.013Z,39.70
2018-08-09T08:03:49.556Z,44.11
2018-08-09T08:06:24.096Z,45.90
2018-08-09T08:08:58.812Z,45.24
2018-08-09T08:11:33.288Z,48.05
2018-08-09T08:14:07.822Z,47.89
2018-08-09T08:16:42.217Z,48.03
2018-08-09T08:19:16.697Z,48.13
2018-08-09T08:21:51.101Z,48.65
2018-08-09T08:24:25.550Z,48.51
2018-08-09T08:27:03.279Z,46.82
2018-08-09T08:29:38.082Z,45.51
2018-08-09T08:32:12.701Z,44.80
2018-08-09T08:34:47.169Z,43.79
2018-08-09T08:37:21.818Z,45.52
2018-08-09T08:39:56.465Z,47.00
2018-08-09T08:42:31.046Z,46.68
2018-08-09T08:45:07.952Z,43.71
2018-08-09T08:47:43.411Z,42.82
2018-08-09T08:50:17.982Z,39.17
2018-08-09T08:52:52.317Z,38.73
2018-08-09T08:55:26.755Z,40.15
2018-08-09T08:58:01.216Z,39.94
2018-08-09T09:00:35.856Z,40.27
2018-08-09T09:03:10.289Z,36.40
2018-08-09T09:05:44.730Z,37.67
2018-08-09T09:08:19.681Z,35.85
2018-08-09T09:10:55.764Z,34.22
2018-08-09T09:13:30.242Z,36.83
2018-08-09T09:16:04.637Z,37.00
2018-08-09T09:18:38.973Z,36.02
2018-08-09T09:21:13.430Z,32.59
2018-08-09T09:23:48.099Z,32.04
2018-08-09T09:26:22.497Z,31.08
2018-08-09T09:28:57.096Z,29.88
2018-08-09T09:31:31.589Z,29.77
2018-08-09T09:34:06.245Z,25.50
2018-08-09T09:36:40.576Z,29.60
2018-08-09T09:39:14.985Z,30.11
2018-08-09T09:41:49.572Z,32.24
2018-08-09T09:44:23.948Z,33.90
2018-08-09T09:46:58.709Z,31.76
2018-08-09T09:49:33.309Z,28.83
2018-08-09T09:52:07.833Z,27.38
2018-08-09T09:54:42.489Z,28.68
2018-08-09T09:57:17.145Z,28.84
2018-08-09T09:59:51.740Z,30.37
2018-08-09T10:02:26.247Z,28.58
2018-08-09T10:05:00.804Z,26.34
2018-08-09T10:07:35.197Z,25.94
2018-08-09T10:10:10.417Z,25.56
2018-08-09T10:12:45.653Z,24.35
2018-08-09T10:15:20.221Z,25.52
2018-08-09T10:17:54.714Z,22.48
2018-08-09T10:20:29.150Z,22.32
2018-08-09T10:23:03.838Z,22.76
2018-08-09T10:25:38.393Z,21.65
2018-08-09T10:28:13.041Z,21.66
2018-08-09T10:30:47.501Z,22.10
2018-08-09T10:33:22.125Z,22.92
2018-08-09T10:35:56.713Z,24.31
2018-08-09T10:38:31.234Z,23.81
2018-08-09T10:41:05.903Z,24.50
2018-08-09T10:43:40.620Z,22.71
2018-08-09T10:52:15.103Z,26.75
2018-08-09T10:54:54.584Z,29.41
2018-08-09T10:57:28.998Z,30.71
2018-08-09T11:00:03.693Z,32.56
2018-08-09T11:05:56.940Z,34.04
2018-08-09T11:08:31.732Z,33.82
2018-08-09T11:11:14.280Z,35.53
2018-08-09T11:13:48.845Z,33.87
2018-08-09T11:16:23.516Z,32.49
2018-08-09T11:18:58.078Z,31.53
2018-08-09T11:21:32.597Z,31.26
2018-08-09T11:24:07.215Z,31.93
2018-08-09T11:26:41.788Z,29.68
2018-08-09T11:29:16.219Z,29.93
2018-08-09T11:31:50.760Z,30.69
2018-08-09T11:34:25.208Z,30.79
2018-08-09T11:36:59.838Z,31.45
2018-08-09T11:39:53.381Z,33.49
2018-08-09T11:42:34.776Z,34.78
2018-08-09T11:45:09.745Z,35.85
2018-08-09T11:47:44.196Z,34.86
2018-08-09T11:50:18.776Z,34.80
2018-08-09T11:52:53.404Z,34.76
2018-08-09T11:55:27.961Z,35.43
2018-08-09T11:58:02.974Z,34.89
2018-08-09T12:00:37.900Z,34.82
2018-08-09T12:03:12.454Z,35.82
2018-08-09T12:05:46.768Z,35.85
2018-08-09T12:08:21.341Z,36.71
2018-08-09T12:10:56.195Z,37.26
2018-08-09T12:13:30.975Z,36.26
2018-08-09T12:16:06.271Z,37.78
2018-08-09T12:18:40.706Z,37.62
2018-08-09T12:21:15.476Z,37.51
2018-08-09T12:23:50.520Z,37.41
2018-08-09T12:26:24.845Z,36.93
2018-08-09T12:28:59.265Z,36.93
2018-08-09T12:31:33.778Z,37.43
2018-08-09T12:34:08.288Z,38.54
2018-08-09T12:36:42.785Z,38.72
2018-08-09T12:39:17.217Z,38.56
2018-08-09T12:41:51.619Z,39.30
2018-08-09T12:44:26.077Z,38.81
2018-08-09T12:47:00.475Z,38.87
2018-08-09T12:49:35.392Z,39.19
2018-08-09T12:52:09.941Z,39.66
2018-08-09T12:54:44.553Z,39.54
2018-08-09T12:57:19.142Z,39.09
2018-08-09T12:59:54.004Z,39.66
2018-08-09T13:02:28.561Z,49.34
2018-08-09T13:05:03.048Z,67.33
2018-08-09T13:07:37.521Z,78.32
2018-08-09T13:10:13.105Z,78.06
2018-08-09T13:12:47.663Z,74.36
2018-08-09T13:15:22.156Z,72.40
2018-08-09T13:17:56.580Z,72.99
2018-08-09T13:20:31.273Z,69.38
2018-08-09T13:23:05.954Z,68.29
2018-08-09T13:25:40.425Z,68.38
2018-08-09T13:28:15.072Z,70.07
2018-08-09T13:30:49.757Z,70.54
2018-08-09T13:33:24.285Z,69.87
2018-08-09T13:35:58.694Z,70.64
2018-08-09T13:38:33.172Z,70.22
2018-08-09T13:41:07.770Z,71.40
2018-08-09T13:43:42.468Z,72.19
2018-08-09T13:46:17.000Z,74.83
2018-08-09T13:48:51.599Z,74.87
2018-08-09T13:51:26.252Z,76.49
2018-08-09T13:54:00.796Z,79.25
2018-08-09T13:56:35.389Z,79.39
2018-08-09T13:59:10.076Z,81.86
2018-08-09T14:01:44.776Z,81.77
2018-08-09T14:04:19.579Z,81.63
2018-08-09T14:06:54.068Z,80.00
2018-08-09T14:09:28.617Z,80.08
2018-08-09T14:12:03.036Z,78.46
2018-08-09T14:14:37.516Z,77.53
2018-08-09T14:17:12.282Z,76.82
2018-08-09T14:19:46.992Z,74.69
2018-08-09T14:22:21.520Z,71.99
2018-08-09T14:24:56.106Z,70.10
2018-08-09T14:27:31.118Z,68.67
2018-08-09T14:30:06.196Z,68.08
2018-08-09T14:32:40.755Z,67.89
2018-08-09T14:35:16.637Z,67.80
2018-08-09T14:37:51.615Z,67.32
2018-08-09T14:40:31.258Z,64.25
2018-08-09T14:43:08.689Z,63.82
2018-08-09T14:45:44.936Z,62.05
2018-08-09T14:48:23.731Z,62.80
2018-08-09T14:50:58.343Z,61.38
2018-08-09T14:53:32.934Z,61.10
2018-08-09T14:56:07.580Z,62.03
2018-08-09T14:58:43.282Z,61.10
2018-08-09T15:01:18.129Z,61.26
2018-08-09T15:03:52.841Z,61.77
2018-08-09T15:06:27.390Z,62.57
2018-08-09T15:09:02.037Z,62.82
2018-08-09T15:11:36.863Z,63.89
2018-08-09T15:14:31.277Z,64.30
2018-08-09T15:17:05.949Z,65.34
2018-08-09T15:19:40.704Z,65.05
2018-08-09T15:22:15.245Z,65.28
2018-08-09T15:24:49.855Z,64.74
2018-08-09T15:27:24.389Z,65.58
2018-08-09T15:29:58.994Z,65.87
2018-08-09T15:32:33.705Z,65.25
2018-08-09T15:35:08.213Z,66.75
2018-08-09T15:37:42.860Z,67.07
2018-08-09T15:40:17.372Z,66.92
2018-08-09T15:42:51.805Z,65.49
2018-08-09T15:45:26.476Z,66.88
2018-08-09T15:48:01.081Z,66.09
2018-08-09T15:50:35.677Z,66.14
2018-08-09T15:53:10.414Z,66.49
2018-08-09T15:55:44.980Z,67.22
2018-08-09T15:58:19.479Z,67.29
2018-08-09T16:00:54.071Z,67.99
2018-08-09T16:03:28.459Z,67.96
2018-08-09T16:06:03.058Z,69.51
2018-08-09T16:08:37.669Z,69.65
2018-08-09T16:11:12.241Z,70.23
2018-08-09T16:13:47.641Z,70.53
2018-08-09T16:16:22.187Z,70.69
2018-08-09T16:18:56.844Z,70.35
2018-08-09T16:21:31.620Z,70.53
2018-08-09T16:24:06.120Z,70.50
2018-08-09T16:26:40.711Z,69.87
2018-08-09T16:29:15.304Z,69.64
2018-08-09T16:31:49.824Z,68.71
2018-08-09T16:34:35.153Z,68.33
2018-08-09T16:37:09.733Z,66.79
2018-08-09T16:39:44.716Z,67.75
2018-08-09T16:42:19.246Z,66.28
2018-08-09T16:44:53.909Z,65.51
2018-08-09T16:47:28.708Z,65.01
2018-08-09T16:50:03.144Z,64.84
2018-08-09T16:52:37.764Z,64.81
2018-08-09T16:55:13.417Z,65.23
2018-08-09T16:57:47.950Z,65.18
2018-08-09T17:00:23.632Z,65.19
2018-08-09T17:02:58.128Z,65.23
2018-08-09T17:05:33.113Z,66.28
2018-08-09T17:08:07.754Z,65.52
2018-08-09T17:10:43.017Z,65.74
2018-08-09T17:13:17.604Z,65.60
2018-08-09T17:15:52.228Z,65.72
2018-08-09T17:18:26.661Z,64.40
2018-08-09T17:21:01.190Z,64.08
2018-08-09T17:23:35.718Z,63.69
2018-08-09T17:26:10.125Z,63.49
2018-08-09T17:28:44.784Z,64.00
2018-08-09T17:31:19.304Z,64.65
2018-08-09T17:33:57.101Z,64.48
2018-08-09T17:36:31.790Z,65.04
2018-08-09T17:39:10.598Z,65.52
2018-08-09T17:41:45.327Z,65.97
2018-08-09T17:44:19.995Z,65.70
2018-08-09T17:46:54.708Z,65.33
2018-08-09T17:49:29.225Z,65.64
2018-08-09T17:52:03.906Z,65.71
2018-08-09T17:54:38.480Z,66.66
2018-08-09T17:57:13.324Z,66.35
2018-08-09T17:59:47.898Z,66.98
2018-08-09T18:02:22.593Z,67.59
2018-08-09T18:04:57.373Z,68.67
2018-08-09T18:07:31.808Z,69.41
2018-08-09T18:10:10.178Z,69.07
2018-08-09T18:12:44.865Z,65.69
2018-08-09T18:15:20.020Z,64.16
2018-08-09T18:17:54.967Z,66.00
2018-08-09T18:20:36.832Z,67.13
2018-08-09T18:23:11.174Z,70.96
2018-08-09T18:25:45.697Z,70.83
2018-08-09T18:28:20.413Z,71.81
2018-08-09T18:30:57.072Z,71.67
2018-08-09T18:33:37.785Z,72.02
2018-08-09T18:36:13.812Z,71.55
2018-08-09T18:38:48.760Z,72.21
2018-08-09T18:41:27.358Z,71.87
2018-08-09T18:44:02.108Z,72.69
2018-08-09T18:46:36.754Z,72.78
2018-08-09T18:49:11.300Z,73.28
2018-08-09T18:51:45.816Z,73.42
2018-08-09T18:57:25.880Z,72.60
2018-08-09T19:00:03.141Z,72.28
2018-08-09T19:02:37.873Z,71.97
2018-08-09T19:05:12.232Z,71.74
2018-08-09T19:07:46.827Z,71.36
2018-08-09T19:10:27.380Z,69.51
2018-08-09T19:13:01.886Z,69.69
2018-08-09T19:15:36.497Z,70.13
2018-08-09T19:18:11.271Z,69.86
2018-08-09T19:20:45.708Z,70.26
2018-08-09T19:23:20.321Z,70.36
2018-08-09T19:25:54.973Z,70.46
2018-08-09T19:28:29.485Z,68.84
2018-08-09T19:31:04.205Z,68.65
2018-08-09T19:33:38.880Z,68.92
2018-08-09T19:36:13.776Z,68.33
2018-08-09T19:38:48.398Z,68.59
2018-08-09T19:41:23.221Z,68.48
2018-08-09T19:43:57.644Z,68.39
2018-08-09T19:46:32.173Z,68.60
2018-08-09T19:49:06.804Z,68.69
2018-08-09T19:51:41.302Z,68.91
2018-08-09T19:54:16.098Z,68.77
2018-08-09T19:56:50.724Z,68.95
2018-08-09T19:59:25.385Z,69.52
2018-08-09T20:01:59.780Z,69.36
2018-08-09T20:04:34.273Z,68.84
2018-08-09T20:07:09.071Z,69.23
2018-08-09T20:09:43.626Z,68.50
2018-08-09T20:12:18.025Z,68.37
2018-08-09T20:14:52.420Z,69.30
2018-08-09T20:17:26.944Z,69.67
2018-08-09T20:20:01.377Z,69.87
2018-08-09T20:22:35.956Z,70.57
2018-08-09T20:25:11.499Z,70.17
2018-08-09T20:27:46.698Z,69.74
2018-08-09T20:30:21.504Z,69.31
2018-08-09T20:32:56.093Z,68.87
2018-08-09T20:35:30.616Z,68.97
2018-08-09T20:38:05.265Z,69.20
2018-08-09T20:40:39.876Z,69.43
2018-08-09T20:43:14.481Z,69.34
2018-08-09T20:45:49.062Z,67.86
2018-08-09T20:48:23.712Z,67.32
2018-08-09T20:50:58.383Z,67.23
2018-08-09T20:53:33.170Z,67.26
2018-08-09T21:02:12.217Z,67.84
2018-08-09T21:04:47.016Z,68.22
2018-08-09T21:07:21.560Z,69.37
2018-08-09T21:09:56.038Z,69.28
2018-08-09T21:12:30.708Z,66.63
2018-08-09T21:15:06.152Z,67.12
2018-08-09T21:17:40.948Z,67.13
2018-08-09T21:20:15.592Z,68.22
2018-08-09T21:22:50.644Z,69.43
2018-08-09T21:25:25.184Z,69.61
2018-08-09T21:27:59.845Z,70.97
2018-08-09T21:30:34.461Z,71.82
2018-08-09T21:33:09.116Z,72.54
2018-08-09T21:35:43.760Z,71.94
2018-08-09T21:38:18.340Z,72.49
2018-08-09T21:40:52.896Z,72.31
2018-08-09T21:43:27.461Z,72.36
2018-08-09T21:46:01.928Z,72.42
2018-08-09T21:48:36.375Z,73.14
2018-08-09T21:51:10.932Z,73.59
2018-08-09T21:56:45.656Z,73.20
2018-08-09T21:59:20.131Z,72.59
2018-08-09T22:01:54.600Z,72.82
2018-08-09T22:04:29.328Z,73.55
2018-08-09T22:07:09.411Z,73.53
2018-08-09T22:09:49.308Z,73.76
2018-08-09T22:12:29.228Z,73.44
2018-08-09T22:15:09.664Z,73.30
2018-08-09T22:17:49.464Z,73.09
2018-08-09T22:20:29.354Z,73.46
2018-08-09T22:23:03.877Z,73.84
2018-08-09T22:25:38.292Z,74.14
2018-08-09T22:28:12.720Z,74.32
2018-08-09T22:30:47.265Z,74.87
2018-08-09T22:33:22.190Z,76.56
2018-08-09T22:35:56.996Z,77.90
2018-08-09T22:38:32.310Z,79.02
2018-08-09T22:41:06.851Z,79.65
2018-08-09T22:43:41.388Z,79.71
2018-08-09T22:46:16.092Z,79.68
2018-08-09T22:48:50.568Z,79.81
2018-08-09T22:51:25.258Z,79.91
2018-08-09T22:53:59.750Z,80.23
2018-08-09T22:56:34.160Z,79.28
2018-08-09T22:59:08.768Z,78.77
2018-08-09T23:01:43.389Z,78.41
2018-08-09T23:04:17.984Z,78.05
2018-08-09T23:06:52.592Z,77.97
2018-08-09T23:09:27.213Z,77.89
2018-08-09T23:12:01.809Z,77.90
2018-08-09T23:14:36.628Z,78.69
2018-08-09T23:17:11.316Z,79.62
2018-08-09T23:19:45.928Z,80.75
2018-08-09T23:22:20.369Z,84.25
2018-08-09T23:24:54.824Z,86.79
2018-08-09T23:27:29.286Z,85.26
2018-08-09T23:30:04.753Z,85.58
2018-08-09T23:32:39.313Z,86.49
2018-08-09T23:35:14.100Z,85.39
2018-08-09T23:37:48.570Z,84.12
2018-08-09T23:40:23.444Z,85.24
2018-08-09T23:42:58.068Z,87.62
2018-08-09T23:45:32.633Z,90.77
2018-08-09T23:48:07.228Z,93.57
2018-08-09T23:50:41.709Z,95.45
2018-08-09T23:53:16.556Z,96.08
2018-08-09T23:55:51.149Z,96.87
2018-08-09T23:58:25.711Z,97.69
